Time;durP1;ratioP1;P1;durP2;ratioP2;P2;SDS_P1;SDS_P2;PMS_P1;PMS_P2;Temp;Humidity;BMP_temperature;BMP_pressure;BME280_temperature;BME280_humidity;BME280_pressure;Samples;Min_cycle;Max_cycle;Signal;HPM_P1;HPM_P2
2021/12/06 00:00:54;;;;;;;31.67;20.13;;;;;;;;;;5047736;28;20111;-62
2021/12/06 00:03:23;;;;;;;32.50;20.60;;;;;;;;;;5063642;28;20047;-62
2021/12/06 00:05:49;;;;;;;30.92;20.35;;;;;;;;;;5065128;28;20086;-62
2021/12/06 00:08:15;;;;;;;31.90;19.48;;;;;;;;;;5061996;28;20065;-62
2021/12/06 00:10:42;;;;;;;32.17;20.73;;;;;;;;;;5063578;28;20094;-62
2021/12/06 00:13:08;;;;;;;29.42;19.52;;;;;;;;;;5064293;28;20411;-62
2021/12/06 00:15:35;;;;;;;31.35;19.52;;;;;;;;;;5048220;28;20049;-62
2021/12/06 00:18:01;;;;;;;31.38;20.20;;;;;;;;;;5052799;28;20037;-62
2021/12/06 00:20:27;;;;;;;28.67;19.88;;;;;;;;;;5063713;28;20052;-62
2021/12/06 00:22:54;;;;;;;31.13;21.40;;;;;;;;;;5062980;28;20418;-62
2021/12/06 00:25:21;;;;;;;33.85;20.75;;;;;;;;;;5064319;28;20488;-62
2021/12/06 00:27:47;;;;;;;31.83;21.05;;;;;;;;;;5044892;28;20566;-62
2021/12/06 00:30:16;;;;;;;33.17;21.75;;;;;;;;;;5045981;28;20048;-62
2021/12/06 00:32:43;;;;;;;34.92;21.88;;;;;;;;;;5047931;28;20149;-62
2021/12/06 00:35:18;;;;;;;34.30;21.52;;;;;;;;;;5063976;28;20160;-62
2021/12/06 00:37:54;;;;;;;33.53;21.58;;;;;;;;;;5063294;28;20048;-62
2021/12/06 00:40:21;;;;;;;31.80;22.23;;;;;;;;;;5059604;28;20376;-62
2021/12/06 00:42:47;;;;;;;37.58;22.52;;;;;;;;;;5055892;28;20064;-62
2021/12/06 00:45:13;;;;;;;41.22;24.90;;;;;;;;;;5062653;28;20406;-62
2021/12/06 00:47:39;;;;;;;38.28;24.58;;;;;;;;;;5061624;28;20051;-62
2021/12/06 00:50:06;;;;;;;38.78;24.30;;;;;;;;;;5069287;28;20287;-62
2021/12/06 00:52:33;;;;;;;38.40;24.98;;;;;;;;;;5063553;28;20415;-62
2021/12/06 00:54:59;;;;;;;40.38;23.83;;;;;;;;;;5067225;28;20431;-62
2021/12/06 00:57:25;;;;;;;37.50;24.60;;;;;;;;;;5063248;28;20105;-62
2021/12/06 00:59:51;;;;;;;35.80;22.98;;;;;;;;;;5062255;28;20029;-63
2021/12/06 01:02:17;;;;;;;39.17;25.48;;;;;;;;;;5062449;28;20049;-62
2021/12/06 01:04:45;;;;;;;40.70;25.50;;;;;;;;;;5040507;28;20056;-62
2021/12/06 01:07:11;;;;;;;37.78;24.10;;;;;;;;;;5064291;28;20041;-62
2021/12/06 01:09:37;;;;;;;41.70;24.92;;;;;;;;;;5062368;28;20045;-62
2021/12/06 01:12:04;;;;;;;42.42;25.63;;;;;;;;;;5051529;28;20036;-62
2021/12/06 01:14:31;;;;;;;41.90;25.35;;;;;;;;;;5060004;28;20119;-62
2021/12/06 01:16:57;;;;;;;45.75;26.48;;;;;;;;;;5048040;28;20053;-62
2021/12/06 01:19:28;;;;;;;40.67;25.38;;;;;;;;;;5063057;28;20037;-62
2021/12/06 01:22:10;;;;;;;45.22;27.50;;;;;;;;;;5041525;28;20127;-62
2021/12/06 01:24:43;;;;;;;43.05;27.00;;;;;;;;;;5066947;28;20491;-62
2021/12/06 01:27:29;;;;;;;44.05;28.90;;;;;;;;;;5065796;28;20073;-62
2021/12/06 01:32:49;;;;;;;41.30;25.05;;;;;;;;;;5062980;28;20104;-62
2021/12/06 01:40:37;;;;;;;36.58;24.05;;;;;;;;;;5039086;28;20041;-62
2021/12/06 01:43:05;;;;;;;40.70;23.08;;;;;;;;;;5037940;28;20088;-62
2021/12/06 01:45:31;;;;;;;35.17;21.92;;;;;;;;;;5043619;28;20045;-62
2021/12/06 01:47:57;;;;;;;40.75;24.30;;;;;;;;;;5041277;28;20033;-62
2021/12/06 01:50:25;;;;;;;35.13;21.50;;;;;;;;;;5041180;28;20108;-62
2021/12/06 01:52:53;;;;;;;34.90;21.55;;;;;;;;;;5042518;28;20400;-62
2021/12/06 01:55:21;;;;;;;32.85;19.58;;;;;;;;;;5039804;28;20116;-62
2021/12/06 01:57:48;;;;;;;33.72;21.23;;;;;;;;;;5036179;28;20051;-62
2021/12/06 02:00:15;;;;;;;33.60;21.00;;;;;;;;;;5040107;28;20530;-62
2021/12/06 02:02:41;;;;;;;33.17;20.80;;;;;;;;;;5041499;28;20049;-62
2021/12/06 02:05:07;;;;;;;38.53;22.88;;;;;;;;;;5043453;28;20045;-62
2021/12/06 02:07:34;;;;;;;34.15;20.50;;;;;;;;;;5043488;28;20033;-62
2021/12/06 02:10:00;;;;;;;39.42;23.85;;;;;;;;;;5041262;28;20044;-62
2021/12/06 02:12:29;;;;;;;36.80;22.65;;;;;;;;;;5038267;28;20045;-62
2021/12/06 02:17:26;;;;;;;39.72;24.80;;;;;;;;;;5040288;28;20089;-62
2021/12/06 02:20:00;;;;;;;44.05;25.50;;;;;;;;;;5040702;28;20549;-62
2021/12/06 02:22:28;;;;;;;42.95;24.20;;;;;;;;;;5041893;28;20486;-62
2021/12/06 02:24:55;;;;;;;39.20;24.90;;;;;;;;;;5042057;28;20041;-62
2021/12/06 02:27:22;;;;;;;45.22;25.88;;;;;;;;;;5042098;28;20383;-62
2021/12/06 02:29:50;;;;;;;44.42;25.70;;;;;;;;;;5041126;28;20048;-62
2021/12/06 02:35:39;;;;;;;41.95;26.02;;;;;;;;;;5052403;28;20080;-62
2021/12/06 02:38:07;;;;;;;40.50;24.50;;;;;;;;;;5042397;28;20129;-62
2021/12/06 02:40:34;;;;;;;43.65;27.13;;;;;;;;;;5051943;28;20088;-62
2021/12/06 02:43:01;;;;;;;46.50;27.65;;;;;;;;;;5061806;28;20029;-62
2021/12/06 02:45:29;;;;;;;44.63;28.30;;;;;;;;;;5064493;28;20048;-62
2021/12/06 02:47:56;;;;;;;44.55;27.52;;;;;;;;;;5067228;28;20518;-62
2021/12/06 02:50:25;;;;;;;47.67;26.98;;;;;;;;;;5063245;28;20400;-62
2021/12/06 02:52:51;;;;;;;44.10;27.02;;;;;;;;;;5064199;28;20499;-62
2021/12/06 02:55:32;;;;;;;46.75;27.42;;;;;;;;;;5063496;28;20040;-62
2021/12/06 02:57:59;;;;;;;47.60;28.58;;;;;;;;;;5059479;28;20060;-62
2021/12/06 03:00:27;;;;;;;51.13;29.83;;;;;;;;;;5050695;28;20077;-62
2021/12/06 03:02:53;;;;;;;45.25;26.63;;;;;;;;;;5045089;28;20067;-62
2021/12/06 03:05:19;;;;;;;49.75;29.30;;;;;;;;;;5063035;28;20032;-62
2021/12/06 03:07:51;;;;;;;45.35;28.08;;;;;;;;;;5066870;28;20048;-62
2021/12/06 03:10:18;;;;;;;49.95;28.58;;;;;;;;;;5066014;28;20120;-62
2021/12/06 03:12:44;;;;;;;51.28;29.63;;;;;;;;;;5062541;28;20044;-62
2021/12/06 03:15:11;;;;;;;53.88;29.73;;;;;;;;;;5047256;28;20120;-62
2021/12/06 03:17:37;;;;;;;48.88;28.10;;;;;;;;;;5065887;28;20131;-62
2021/12/06 03:20:06;;;;;;;49.05;28.85;;;;;;;;;;5031181;28;20146;-62
2021/12/06 03:22:33;;;;;;;56.15;30.58;;;;;;;;;;5063168;28;20051;-62
2021/12/06 03:24:59;;;;;;;51.58;29.50;;;;;;;;;;5052332;28;20040;-62
2021/12/06 03:27:25;;;;;;;48.90;28.55;;;;;;;;;;5051635;28;20530;-62
2021/12/06 03:29:51;;;;;;;49.20;27.77;;;;;;;;;;5061633;28;20068;-62
2021/12/06 03:32:19;;;;;;;50.00;28.13;;;;;;;;;;5047192;28;20037;-62
2021/12/06 03:34:45;;;;;;;49.65;28.67;;;;;;;;;;5062039;28;20064;-62
2021/12/06 03:37:11;;;;;;;46.78;26.88;;;;;;;;;;5063209;28;20048;-62
2021/12/06 03:39:40;;;;;;;45.65;27.17;;;;;;;;;;5064151;28;20040;-62
2021/12/06 03:42:07;;;;;;;46.38;27.23;;;;;;;;;;5061236;28;20055;-62
2021/12/06 03:44:34;;;;;;;51.35;27.80;;;;;;;;;;5068368;28;20044;-62
2021/12/06 03:47:07;;;;;;;53.38;28.98;;;;;;;;;;5032690;28;20131;-62
2021/12/06 03:49:34;;;;;;;52.08;27.85;;;;;;;;;;5062643;28;20060;-62
2021/12/06 03:52:00;;;;;;;52.88;28.63;;;;;;;;;;5061271;28;20083;-62
2021/12/06 03:54:27;;;;;;;53.08;28.35;;;;;;;;;;5067450;28;20123;-62
2021/12/06 03:56:55;;;;;;;59.70;30.05;;;;;;;;;;5047334;28;20340;-62
2021/12/06 03:59:22;;;;;;;57.33;29.90;;;;;;;;;;5061397;28;20435;-62
2021/12/06 04:01:48;;;;;;;57.58;29.70;;;;;;;;;;5062970;28;20411;-62
2021/12/06 04:04:15;;;;;;;57.25;30.25;;;;;;;;;;5051100;28;20036;-62
2021/12/06 04:06:41;;;;;;;63.38;31.27;;;;;;;;;;5049388;28;20052;-62
2021/12/06 04:09:08;;;;;;;58.30;29.77;;;;;;;;;;5063006;28;20125;-62
2021/12/06 04:11:36;;;;;;;61.58;30.73;;;;;;;;;;5048493;28;20041;-62
2021/12/06 04:14:03;;;;;;;68.18;32.50;;;;;;;;;;5064021;28;20449;-62
2021/12/06 04:16:29;;;;;;;63.83;31.63;;;;;;;;;;5064881;28;20051;-62
2021/12/06 04:18:55;;;;;;;65.22;30.02;;;;;;;;;;5042637;28;20466;-62
2021/12/06 04:21:22;;;;;;;64.18;31.40;;;;;;;;;;5063729;28;20040;-62
2021/12/06 04:23:48;;;;;;;63.38;31.52;;;;;;;;;;5064753;28;20665;-62
2021/12/06 04:26:15;;;;;;;66.35;31.70;;;;;;;;;;5044454;28;20068;-62
2021/12/06 04:28:47;;;;;;;62.95;31.73;;;;;;;;;;5063269;28;20048;-62
2021/12/06 04:31:14;;;;;;;68.65;33.80;;;;;;;;;;5059446;28;20064;-62
2021/12/06 04:33:40;;;;;;;61.30;30.85;;;;;;;;;;5043620;28;20040;-62
2021/12/06 04:36:06;;;;;;;64.40;32.67;;;;;;;;;;5063604;28;20160;-62
2021/12/06 04:38:33;;;;;;;63.28;32.38;;;;;;;;;;5042014;28;20067;-62
2021/12/06 04:40:59;;;;;;;68.15;32.80;;;;;;;;;;5066656;28;20043;-62
2021/12/06 04:43:25;;;;;;;68.15;32.38;;;;;;;;;;5057731;28;20477;-62
2021/12/06 04:45:51;;;;;;;68.40;32.55;;;;;;;;;;5060717;28;20102;-62
2021/12/06 04:48:17;;;;;;;65.10;32.92;;;;;;;;;;5067119;28;20505;-62
2021/12/06 04:50:44;;;;;;;67.25;33.47;;;;;;;;;;5041200;28;20074;-62
2021/12/06 04:53:13;;;;;;;72.63;33.97;;;;;;;;;;5046142;28;20040;-62
2021/12/06 04:55:41;;;;;;;72.88;33.78;;;;;;;;;;5063254;28;20041;-62
2021/12/06 04:58:09;;;;;;;72.30;33.45;;;;;;;;;;5060698;28;20033;-62
2021/12/06 05:00:37;;;;;;;78.22;34.90;;;;;;;;;;5068119;28;20491;-62
2021/12/06 05:03:04;;;;;;;82.35;34.20;;;;;;;;;;5069937;28;20040;-62
2021/12/06 05:05:33;;;;;;;76.07;35.15;;;;;;;;;;5062417;28;20064;-62
2021/12/06 05:08:04;;;;;;;71.28;36.03;;;;;;;;;;5055258;28;20488;-62
2021/12/06 05:10:30;;;;;;;77.57;36.15;;;;;;;;;;5061610;28;20112;-62
2021/12/06 05:12:56;;;;;;;76.82;36.10;;;;;;;;;;5058561;28;20064;-62
2021/12/06 05:15:23;;;;;;;79.50;36.55;;;;;;;;;;5047736;28;20052;-62
2021/12/06 05:17:49;;;;;;;74.00;34.72;;;;;;;;;;5062726;28;20139;-62
2021/12/06 05:20:16;;;;;;;78.43;35.00;;;;;;;;;;5066534;28;20040;-62
2021/12/06 05:22:42;;;;;;;76.40;34.63;;;;;;;;;;5069913;28;20123;-62
2021/12/06 05:25:11;;;;;;;74.55;34.55;;;;;;;;;;5065332;28;20055;-62
2021/12/06 05:27:37;;;;;;;78.28;35.38;;;;;;;;;;5047177;28;20087;-62
2021/12/06 05:30:06;;;;;;;79.07;36.20;;;;;;;;;;5068346;28;20084;-62
2021/12/06 05:32:34;;;;;;;76.28;34.65;;;;;;;;;;5063891;28;20064;-62
2021/12/06 05:35:05;;;;;;;76.18;35.17;;;;;;;;;;5063632;28;20195;-62
2021/12/06 05:37:32;;;;;;;72.70;32.38;;;;;;;;;;5047488;28;20097;-62
2021/12/06 05:39:58;;;;;;;76.03;35.83;;;;;;;;;;5047095;28;20043;-62
2021/12/06 05:42:26;;;;;;;73.38;34.10;;;;;;;;;;5063064;28;20158;-62
2021/12/06 05:44:52;;;;;;;72.47;33.92;;;;;;;;;;5060252;28;20044;-62
2021/12/06 05:47:18;;;;;;;73.47;32.78;;;;;;;;;;5041430;28;20487;-62
2021/12/06 05:49:45;;;;;;;73.55;32.92;;;;;;;;;;5058237;28;20504;-62
2021/12/06 05:52:11;;;;;;;73.07;32.17;;;;;;;;;;5065273;28;20045;-62
2021/12/06 05:54:38;;;;;;;70.47;31.27;;;;;;;;;;5064621;28;21514;-62
2021/12/06 05:57:07;;;;;;;70.93;32.38;;;;;;;;;;5064306;28;20483;-62
2021/12/06 05:59:33;;;;;;;67.88;31.13;;;;;;;;;;5050110;28;20115;-62
2021/12/06 06:01:59;;;;;;;74.28;31.90;;;;;;;;;;5057191;28;20036;-62
2021/12/06 06:04:26;;;;;;;68.25;32.03;;;;;;;;;;5064398;28;20094;-62
2021/12/06 06:06:52;;;;;;;69.68;32.05;;;;;;;;;;5062170;28;20098;-62
2021/12/06 06:09:19;;;;;;;69.35;33.05;;;;;;;;;;5063698;28;20048;-62
2021/12/06 06:11:45;;;;;;;72.55;32.38;;;;;;;;;;5064081;28;20040;-62
2021/12/06 06:14:11;;;;;;;68.70;32.22;;;;;;;;;;5052390;28;20044;-62
2021/12/06 06:16:47;;;;;;;66.60;29.90;;;;;;;;;;5050901;28;20498;-62
2021/12/06 06:19:16;;;;;;;74.30;32.17;;;;;;;;;;5066383;28;20137;-62
2021/12/06 06:21:43;;;;;;;62.33;29.73;;;;;;;;;;5048799;28;20119;-62
2021/12/06 06:24:09;;;;;;;64.35;29.65;;;;;;;;;;5048904;28;20048;-62
2021/12/06 06:26:35;;;;;;;62.63;29.15;;;;;;;;;;5061481;28;20055;-62
2021/12/06 06:29:01;;;;;;;69.53;30.98;;;;;;;;;;5061354;28;20052;-62
2021/12/06 06:31:27;;;;;;;62.15;30.10;;;;;;;;;;5064407;28;20139;-62
2021/12/06 06:33:54;;;;;;;68.97;32.63;;;;;;;;;;5047164;28;20058;-62
2021/12/06 06:36:20;;;;;;;66.70;31.73;;;;;;;;;;5060769;28;20076;-62
2021/12/06 06:38:46;;;;;;;67.05;30.60;;;;;;;;;;5068892;28;20105;-62
2021/12/06 06:41:12;;;;;;;70.95;32.45;;;;;;;;;;5065912;28;20040;-62
2021/12/06 06:43:38;;;;;;;67.90;30.48;;;;;;;;;;5067774;28;20044;-62
2021/12/06 06:46:05;;;;;;;65.38;30.08;;;;;;;;;;5067281;28;20183;-62
2021/12/06 06:48:32;;;;;;;71.00;30.92;;;;;;;;;;5052300;28;20071;-62
2021/12/06 06:50:58;;;;;;;68.03;32.45;;;;;;;;;;5067909;28;20123;-62
2021/12/06 06:53:26;;;;;;;71.90;33.05;;;;;;;;;;5063061;28;20080;-62
2021/12/06 06:55:53;;;;;;;74.90;31.77;;;;;;;;;;5062925;28;20068;-62
2021/12/06 06:58:19;;;;;;;68.93;31.33;;;;;;;;;;5066631;28;20033;-62
2021/12/06 07:00:45;;;;;;;78.82;33.17;;;;;;;;;;5052005;28;20052;-62
2021/12/06 07:03:12;;;;;;;78.07;32.92;;;;;;;;;;5067589;28;20047;-62
2021/12/06 07:05:38;;;;;;;78.55;33.72;;;;;;;;;;5069992;28;20053;-62
2021/12/06 07:08:05;;;;;;;81.78;34.17;;;;;;;;;;5046571;28;20044;-62
2021/12/06 07:10:31;;;;;;;79.05;35.03;;;;;;;;;;5062042;28;20079;-62
2021/12/06 07:12:59;;;;;;;76.40;32.85;;;;;;;;;;5047925;28;20049;-62
2021/12/06 07:15:32;;;;;;;85.82;33.58;;;;;;;;;;5066780;28;20113;-62
2021/12/06 07:17:59;;;;;;;75.95;32.15;;;;;;;;;;5068285;28;20076;-62
2021/12/06 07:20:26;;;;;;;87.85;34.83;;;;;;;;;;5067322;28;20178;-62
2021/12/06 07:22:53;;;;;;;85.43;35.72;;;;;;;;;;5030379;28;20510;-62
2021/12/06 07:25:21;;;;;;;94.00;36.90;;;;;;;;;;5069065;28;20067;-62
2021/12/06 07:27:48;;;;;;;87.70;34.53;;;;;;;;;;5059816;28;20170;-62
2021/12/06 07:30:15;;;;;;;91.05;36.35;;;;;;;;;;5063463;28;20044;-62
2021/12/06 07:32:42;;;;;;;91.22;36.08;;;;;;;;;;5064182;28;20380;-62
2021/12/06 07:35:09;;;;;;;88.93;35.17;;;;;;;;;;5042863;28;20523;-62
2021/12/06 07:37:35;;;;;;;101.07;38.50;;;;;;;;;;5039393;28;20057;-62
2021/12/06 07:40:02;;;;;;;101.43;38.00;;;;;;;;;;5040935;28;20531;-63
2021/12/06 07:42:28;;;;;;;103.18;39.63;;;;;;;;;;5041464;28;20041;-63
2021/12/06 07:44:54;;;;;;;97.93;36.53;;;;;;;;;;5036531;28;20473;-62
2021/12/06 07:47:22;;;;;;;102.18;38.28;;;;;;;;;;5042847;28;20082;-62
2021/12/06 07:49:48;;;;;;;104.65;36.83;;;;;;;;;;5045991;28;20123;-62
2021/12/06 07:52:14;;;;;;;101.43;38.50;;;;;;;;;;5046320;28;20037;-63
2021/12/06 07:54:42;;;;;;;105.85;38.65;;;;;;;;;;5046301;28;20144;-62
2021/12/06 07:57:09;;;;;;;104.43;38.03;;;;;;;;;;5043853;28;20057;-62
2021/12/06 07:59:35;;;;;;;101.07;37.72;;;;;;;;;;5043077;28;20115;-62
2021/12/06 08:02:02;;;;;;;103.05;37.28;;;;;;;;;;5044432;28;20121;-63
2021/12/06 08:04:28;;;;;;;96.50;38.70;;;;;;;;;;5043109;28;20052;-62
2021/12/06 08:06:54;;;;;;;104.88;39.70;;;;;;;;;;5044347;28;20098;-63
2021/12/06 08:09:20;;;;;;;97.95;38.10;;;;;;;;;;5044945;28;20043;-62
2021/12/06 08:11:47;;;;;;;94.95;36.72;;;;;;;;;;5043308;28;20396;-63
2021/12/06 08:14:13;;;;;;;109.90;40.92;;;;;;;;;;5040689;28;20041;-62
2021/12/06 08:16:43;;;;;;;99.32;38.50;;;;;;;;;;5045153;28;20520;-61
2021/12/06 08:19:11;;;;;;;100.80;39.50;;;;;;;;;;5034395;28;20046;-62
2021/12/06 08:21:37;;;;;;;95.22;36.42;;;;;;;;;;5041476;28;20120;-62
2021/12/06 08:24:04;;;;;;;95.85;36.42;;;;;;;;;;5035162;28;20515;-62
2021/12/06 08:26:32;;;;;;;103.60;38.13;;;;;;;;;;5039872;28;20072;-62
2021/12/06 08:28:59;;;;;;;104.50;38.83;;;;;;;;;;5038712;28;20053;-62
2021/12/06 08:31:27;;;;;;;99.40;37.08;;;;;;;;;;5038528;28;20175;-64
2021/12/06 08:33:54;;;;;;;91.78;35.80;;;;;;;;;;5045718;28;20168;-64
2021/12/06 08:36:21;;;;;;;96.28;36.53;;;;;;;;;;5065974;28;20044;-63
2021/12/06 08:38:48;;;;;;;103.22;36.33;;;;;;;;;;5070557;28;20117;-64
2021/12/06 08:41:16;;;;;;;105.60;37.80;;;;;;;;;;5051756;28;20049;-65
2021/12/06 08:43:43;;;;;;;105.47;39.55;;;;;;;;;;5064296;28;20095;-64
2021/12/06 08:46:15;;;;;;;97.00;36.33;;;;;;;;;;5030332;28;20052;-64
2021/12/06 08:48:43;;;;;;;96.43;35.80;;;;;;;;;;5061333;28;20135;-64
2021/12/06 08:51:11;;;;;;;98.15;36.95;;;;;;;;;;5050092;28;20492;-64
2021/12/06 08:53:38;;;;;;;98.00;37.40;;;;;;;;;;5063853;28;20056;-64
2021/12/06 08:56:05;;;;;;;89.13;34.67;;;;;;;;;;5050818;28;20055;-64
2021/12/06 08:58:31;;;;;;;84.72;33.95;;;;;;;;;;5067669;28;20052;-64
2021/12/06 09:00:58;;;;;;;92.93;35.22;;;;;;;;;;5062255;28;20075;-64
2021/12/06 09:03:24;;;;;;;93.72;36.03;;;;;;;;;;5069654;28;20038;-66
2021/12/06 09:05:52;;;;;;;102.13;36.97;;;;;;;;;;5034490;28;20519;-64
2021/12/06 09:08:18;;;;;;;106.35;36.00;;;;;;;;;;5061404;28;20124;-64
2021/12/06 09:10:49;;;;;;;99.78;36.55;;;;;;;;;;5062582;28;20486;-64
2021/12/06 09:13:16;;;;;;;104.97;37.08;;;;;;;;;;5059284;28;20037;-64
2021/12/06 09:15:43;;;;;;;111.20;37.83;;;;;;;;;;5063296;28;20040;-63
2021/12/06 09:18:09;;;;;;;123.35;40.42;;;;;;;;;;5068510;28;20076;-64
2021/12/06 09:20:36;;;;;;;128.95;38.95;;;;;;;;;;5068078;28;20119;-64
2021/12/06 09:23:04;;;;;;;135.02;41.85;;;;;;;;;;5065744;28;20047;-64
2021/12/06 09:25:31;;;;;;;131.52;42.33;;;;;;;;;;5069210;28;20488;-64
2021/12/06 09:27:57;;;;;;;131.20;42.90;;;;;;;;;;5058423;28;20048;-64
2021/12/06 09:30:26;;;;;;;145.98;43.20;;;;;;;;;;5058196;28;20037;-64
2021/12/06 09:32:54;;;;;;;138.60;40.85;;;;;;;;;;5060536;28;20051;-64
2021/12/06 09:35:26;;;;;;;140.50;41.92;;;;;;;;;;5059436;28;20056;-63
2021/12/06 09:37:53;;;;;;;145.38;43.08;;;;;;;;;;5043827;28;20127;-63
2021/12/06 09:40:19;;;;;;;150.38;42.53;;;;;;;;;;5058191;28;20090;-63
2021/12/06 09:42:46;;;;;;;149.02;41.10;;;;;;;;;;5059299;28;20048;-63
2021/12/06 09:45:14;;;;;;;153.27;46.40;;;;;;;;;;5062409;28;20426;-63
2021/12/06 09:47:40;;;;;;;141.00;42.60;;;;;;;;;;5058600;28;20118;-64
2021/12/06 09:50:07;;;;;;;142.25;44.00;;;;;;;;;;5042351;28;20394;-64
2021/12/06 09:52:33;;;;;;;150.48;42.15;;;;;;;;;;5062387;28;20040;-63
2021/12/06 09:54:59;;;;;;;145.15;43.22;;;;;;;;;;5047168;28;20500;-63
2021/12/06 09:57:26;;;;;;;142.93;44.10;;;;;;;;;;5059666;28;20048;-64
2021/12/06 09:59:52;;;;;;;156.07;44.83;;;;;;;;;;5039328;28;20124;-63
2021/12/06 10:02:20;;;;;;;153.93;43.03;;;;;;;;;;5061051;28;20071;-63
2021/12/06 10:04:50;;;;;;;144.27;45.55;;;;;;;;;;5041508;28;20044;-63
2021/12/06 10:07:17;;;;;;;143.75;44.08;;;;;;;;;;5059718;28;21541;-64
2021/12/06 10:09:44;;;;;;;128.15;41.30;;;;;;;;;;5045098;28;20044;-64
2021/12/06 10:12:11;;;;;;;138.73;41.95;;;;;;;;;;5059049;28;20040;-64
2021/12/06 10:14:38;;;;;;;128.43;42.45;;;;;;;;;;5061994;28;20029;-64
2021/12/06 10:17:05;;;;;;;115.50;38.97;;;;;;;;;;5058649;28;20345;-64
2021/12/06 10:19:32;;;;;;;109.47;38.65;;;;;;;;;;5055347;28;20044;-64
2021/12/06 10:21:58;;;;;;;132.00;42.90;;;;;;;;;;5043814;28;20127;-64
2021/12/06 10:24:26;;;;;;;122.75;39.92;;;;;;;;;;5043818;28;20722;-64
2021/12/06 10:27:02;;;;;;;129.30;42.55;;;;;;;;;;5042781;28;20483;-64
2021/12/06 10:29:34;;;;;;;103.13;38.95;;;;;;;;;;5058900;28;20043;-63
2021/12/06 10:32:00;;;;;;;120.80;39.75;;;;;;;;;;5042998;28;20045;-63
2021/12/06 10:34:27;;;;;;;106.45;39.30;;;;;;;;;;5059941;28;20053;-63
2021/12/06 10:36:54;;;;;;;111.72;40.60;;;;;;;;;;5024643;28;20403;-63
2021/12/06 10:39:22;;;;;;;102.30;37.58;;;;;;;;;;5060591;28;20051;-63
2021/12/06 10:41:49;;;;;;;115.05;40.40;;;;;;;;;;5040669;28;20464;-63
2021/12/06 10:44:16;;;;;;;111.57;39.42;;;;;;;;;;5041608;28;20048;-63
2021/12/06 10:46:46;;;;;;;105.60;37.72;;;;;;;;;;5042191;28;20139;-63
2021/12/06 10:49:14;;;;;;;99.93;37.45;;;;;;;;;;5059712;28;20040;-63
2021/12/06 10:51:40;;;;;;;92.40;35.33;;;;;;;;;;5043231;28;20049;-64
2021/12/06 10:54:15;;;;;;;92.00;35.92;;;;;;;;;;5042332;28;20162;-63
2021/12/06 10:56:45;;;;;;;86.63;34.72;;;;;;;;;;5065418;28;20117;-63
2021/12/06 10:59:14;;;;;;;83.93;33.85;;;;;;;;;;5063559;28;20452;-63
2021/12/06 11:01:41;;;;;;;95.47;34.80;;;;;;;;;;5063962;28;21491;-63
2021/12/06 11:04:08;;;;;;;82.40;34.20;;;;;;;;;;5062001;28;20048;-63
2021/12/06 11:06:41;;;;;;;88.97;34.35;;;;;;;;;;5047764;28;20045;-63
2021/12/06 11:09:07;;;;;;;86.18;34.75;;;;;;;;;;5068976;28;20059;-63
2021/12/06 11:11:36;;;;;;;92.13;34.85;;;;;;;;;;5049132;28;20426;-63
2021/12/06 11:14:04;;;;;;;100.47;36.53;;;;;;;;;;5065545;28;20064;-63
2021/12/06 11:16:32;;;;;;;101.65;37.25;;;;;;;;;;5062414;28;20515;-63
2021/12/06 11:18:59;;;;;;;106.70;38.08;;;;;;;;;;5062506;28;20052;-63
2021/12/06 11:21:36;;;;;;;106.05;39.60;;;;;;;;;;5061363;28;20501;-63
2021/12/06 11:24:02;;;;;;;100.35;37.17;;;;;;;;;;5063016;28;20040;-64
2021/12/06 11:26:29;;;;;;;98.25;35.70;;;;;;;;;;5053597;28;20499;-63
2021/12/06 11:28:56;;;;;;;88.50;32.25;;;;;;;;;;5054624;28;20052;-68
2021/12/06 11:31:22;;;;;;;78.28;33.72;;;;;;;;;;5052347;28;20058;-64
2021/12/06 11:33:57;;;;;;;82.28;34.40;;;;;;;;;;5072421;28;20049;-64
2021/12/06 11:36:23;;;;;;;83.68;31.95;;;;;;;;;;5071562;28;20048;-63
2021/12/06 11:38:50;;;;;;;82.03;32.20;;;;;;;;;;5051659;28;20086;-63
2021/12/06 11:41:17;;;;;;;81.32;30.95;;;;;;;;;;5067691;28;20198;-63
2021/12/06 11:43:43;;;;;;;84.35;32.75;;;;;;;;;;5068532;28;20041;-64
2021/12/06 11:46:10;;;;;;;79.88;31.77;;;;;;;;;;5070166;28;20127;-63
2021/12/06 11:48:39;;;;;;;82.38;32.65;;;;;;;;;;5065781;28;20078;-66
2021/12/06 11:51:08;;;;;;;76.03;32.65;;;;;;;;;;5063199;28;20133;-63
2021/12/06 11:53:36;;;;;;;76.68;30.13;;;;;;;;;;5051624;28;20028;-65
2021/12/06 11:56:05;;;;;;;79.15;29.38;;;;;;;;;;5050248;28;20067;-63
2021/12/06 11:58:34;;;;;;;71.07;28.20;;;;;;;;;;5066451;28;20116;-63
2021/12/06 12:01:08;;;;;;;80.03;31.02;;;;;;;;;;5052325;28;20450;-64
2021/12/06 12:03:35;;;;;;;81.03;30.00;;;;;;;;;;5058790;28;20137;-63
2021/12/06 12:06:01;;;;;;;92.18;32.25;;;;;;;;;;5059307;28;20047;-64
2021/12/06 12:08:32;;;;;;;87.97;32.28;;;;;;;;;;5063120;28;20379;-64
2021/12/06 12:10:58;;;;;;;86.28;31.92;;;;;;;;;;5042076;28;20040;-63
2021/12/06 12:13:27;;;;;;;95.15;34.70;;;;;;;;;;5056896;28;20041;-63
2021/12/06 12:15:55;;;;;;;92.43;32.85;;;;;;;;;;5058624;28;20036;-63
2021/12/06 12:18:21;;;;;;;96.20;34.72;;;;;;;;;;5060599;28;20124;-63
2021/12/06 12:20:48;;;;;;;103.68;37.38;;;;;;;;;;5041221;28;20049;-63
2021/12/06 12:23:15;;;;;;;106.18;36.28;;;;;;;;;;5061724;28;20067;-63
2021/12/06 12:25:49;;;;;;;112.32;39.38;;;;;;;;;;5058597;28;20036;-63
2021/12/06 12:30:43;;;;;;;115.63;39.72;;;;;;;;;;5063433;28;20048;-63
2021/12/06 12:33:09;;;;;;;122.88;40.88;;;;;;;;;;5056842;28;20048;-64
2021/12/06 12:35:37;;;;;;;125.47;42.60;;;;;;;;;;5062037;28;20055;-64
2021/12/06 12:38:05;;;;;;;120.63;40.92;;;;;;;;;;5060276;28;20730;-64
2021/12/06 12:40:43;;;;;;;123.43;41.33;;;;;;;;;;5046226;28;20040;-63
2021/12/06 12:43:12;;;;;;;139.07;42.50;;;;;;;;;;5060953;28;20044;-63
2021/12/06 12:45:40;;;;;;;128.98;42.47;;;;;;;;;;5049114;28;20168;-64
2021/12/06 12:48:07;;;;;;;140.43;42.45;;;;;;;;;;5043173;28;20133;-63
2021/12/06 12:50:33;;;;;;;150.18;42.30;;;;;;;;;;5060276;28;20504;-63
2021/12/06 12:53:10;;;;;;;143.95;42.92;;;;;;;;;;5062878;28;20086;-64
2021/12/06 12:55:42;;;;;;;139.18;42.13;;;;;;;;;;5047477;28;20098;-64
2021/12/06 12:58:10;;;;;;;142.23;42.45;;;;;;;;;;5058592;28;20040;-65
2021/12/06 13:00:44;;;;;;;157.13;45.58;;;;;;;;;;5045775;28;20049;-65
2021/12/06 13:03:29;;;;;;;127.93;42.13;;;;;;;;;;5056438;28;20049;-63
2021/12/06 13:06:12;;;;;;;133.27;44.20;;;;;;;;;;5046667;28;20045;-62
2021/12/06 13:08:38;;;;;;;141.50;46.08;;;;;;;;;;5065805;28;20060;-65
2021/12/06 13:11:05;;;;;;;133.10;44.38;;;;;;;;;;5042245;28;20072;-72
2021/12/06 13:13:38;;;;;;;127.45;42.08;;;;;;;;;;5050379;28;20147;-62
2021/12/06 13:16:11;;;;;;;102.95;35.30;;;;;;;;;;5062245;28;20040;-62
2021/12/06 13:18:49;;;;;;;118.18;40.80;;;;;;;;;;5054568;28;20040;-62
2021/12/06 13:21:36;;;;;;;109.60;41.92;;;;;;;;;;5055775;28;20416;-62
2021/12/06 13:24:12;;;;;;;101.53;39.85;;;;;;;;;;5057911;28;20381;-62
2021/12/06 13:26:41;;;;;;;103.88;41.17;;;;;;;;;;5058471;28;20032;-62
2021/12/06 13:29:09;;;;;;;98.20;39.30;;;;;;;;;;5062871;28;20420;-62
2021/12/06 13:31:36;;;;;;;100.25;40.25;;;;;;;;;;5062709;28;20040;-62
2021/12/06 13:34:19;;;;;;;102.97;41.00;;;;;;;;;;5057920;28;20079;-62
2021/12/06 13:36:48;;;;;;;105.78;43.28;;;;;;;;;;5057151;28;20412;-62
2021/12/06 13:39:39;;;;;;;100.25;40.85;;;;;;;;;;5060931;28;20044;-62
2021/12/06 13:42:07;;;;;;;107.45;42.08;;;;;;;;;;5056250;28;20111;-62
2021/12/06 13:44:38;;;;;;;98.90;41.00;;;;;;;;;;5069993;28;20051;-62
2021/12/06 13:47:09;;;;;;;108.30;43.05;;;;;;;;;;5053974;28;20041;-62
2021/12/06 13:49:35;;;;;;;102.97;40.67;;;;;;;;;;5060044;28;20051;-64
2021/12/06 13:52:03;;;;;;;103.57;42.08;;;;;;;;;;5064326;28;20400;-63
2021/12/06 13:54:31;;;;;;;111.40;44.17;;;;;;;;;;5053941;28;20041;-63
2021/12/06 13:56:57;;;;;;;102.75;41.67;;;;;;;;;;5039178;28;20045;-63
2021/12/06 13:59:30;;;;;;;98.72;40.40;;;;;;;;;;5064469;28;20177;-63
2021/12/06 14:02:03;;;;;;;97.78;40.30;;;;;;;;;;5062615;28;20044;-62
2021/12/06 14:04:32;;;;;;;104.70;41.05;;;;;;;;;;5061799;28;20081;-63
2021/12/06 14:07:01;;;;;;;98.38;40.63;;;;;;;;;;5064510;28;20045;-63
2021/12/06 14:09:29;;;;;;;91.45;38.60;;;;;;;;;;5061420;28;20433;-63
2021/12/06 14:11:57;;;;;;;91.70;39.40;;;;;;;;;;5061882;28;20207;-63
2021/12/06 14:14:25;;;;;;;88.00;41.30;;;;;;;;;;5029660;28;20208;-63
2021/12/06 14:16:51;;;;;;;92.50;38.45;;;;;;;;;;5055983;28;20052;-63
2021/12/06 14:19:18;;;;;;;88.63;39.00;;;;;;;;;;5058516;28;20484;-63
2021/12/06 14:21:44;;;;;;;88.80;38.88;;;;;;;;;;5043414;28;20045;-63
2021/12/06 14:24:11;;;;;;;91.03;39.10;;;;;;;;;;5060813;28;20466;-63
2021/12/06 14:26:41;;;;;;;89.53;40.25;;;;;;;;;;5060240;28;20071;-63
2021/12/06 14:29:26;;;;;;;86.00;38.28;;;;;;;;;;5060450;28;20064;-63
2021/12/06 14:31:54;;;;;;;92.75;37.50;;;;;;;;;;5061504;28;20040;-62
2021/12/06 14:34:23;;;;;;;86.78;36.95;;;;;;;;;;5066297;28;20044;-63